Time;durP1;ratioP1;P1;durP2;ratioP2;P2;SDS_P1;SDS_P2;PMS_P1;PMS_P2;Temp;Humidity;BMP_temperature;BMP_pressure;BME280_temperature;BME280_humidity;BME280_pressure;Samples;Min_cycle;Max_cycle;Signal;HPM_P1;HPM_P2
2023/09/20 00:01:38;;;;;;;10.30;3.72;;;;;;;;;;4883700;29;20033;-88
2023/09/20 00:04:06;;;;;;;11.60;3.60;;;;;;;;;;4898183;29;20040;-88
2023/09/20 00:06:32;;;;;;;13.95;4.18;;;;;;;;;;4883666;29;20031;-87
2023/09/20 00:09:36;;;;;;;16.88;4.03;;;;;;;;;;4883124;29;20036;-88
2023/09/20 00:12:02;;;;;;;12.68;3.90;;;;;;;;;;4882200;29;20140;-88
2023/09/20 00:14:29;;;;;;;16.92;4.40;;;;;;;;;;4899844;29;20050;-88
2023/09/20 00:16:55;;;;;;;11.98;3.70;;;;;;;;;;4901656;29;20095;-88
2023/09/20 00:19:22;;;;;;;16.42;4.25;;;;;;;;;;4889394;29;20416;-87
2023/09/20 00:21:48;;;;;;;12.23;3.50;;;;;;;;;;4868279;29;20044;-87
2023/09/20 00:24:33;;;;;;;12.82;4.20;;;;;;;;;;4868225;29;20045;-87
2023/09/20 00:26:59;;;;;;;13.13;4.00;;;;;;;;;;4880334;29;20035;-88
2023/09/20 00:29:26;;;;;;;11.30;4.32;;;;;;;;;;4887040;29;20045;-88
2023/09/20 00:31:52;;;;;;;11.25;4.07;;;;;;;;;;4877192;29;20049;-88
2023/09/20 00:34:19;;;;;;;12.32;3.75;;;;;;;;;;4886165;29;20292;-87
2023/09/20 00:36:45;;;;;;;19.27;4.65;;;;;;;;;;4886749;29;20040;-86
2023/09/20 00:39:11;;;;;;;20.00;5.00;;;;;;;;;;4901172;29;20037;-87
2023/09/20 00:41:37;;;;;;;19.27;4.93;;;;;;;;;;4873296;29;20038;-87
2023/09/20 00:44:04;;;;;;;19.33;6.03;;;;;;;;;;4882972;29;20037;-88
2023/09/20 00:46:31;;;;;;;24.67;6.05;;;;;;;;;;4886551;29;20021;-87
2023/09/20 00:48:57;;;;;;;16.95;5.00;;;;;;;;;;4886531;29;20025;-88
2023/09/20 00:51:26;;;;;;;19.02;5.13;;;;;;;;;;4886505;29;20108;-88
2023/09/20 00:56:55;;;;;;;17.25;4.32;;;;;;;;;;4886365;29;20028;-88
2023/09/20 00:59:21;;;;;;;18.30;5.07;;;;;;;;;;4901075;29;20080;-88
2023/09/20 01:01:48;;;;;;;14.75;4.72;;;;;;;;;;4900945;29;20033;-88
2023/09/20 01:04:14;;;;;;;18.52;4.90;;;;;;;;;;4886474;29;20029;-87
2023/09/20 01:06:41;;;;;;;12.30;5.28;;;;;;;;;;4877636;29;20525;-87
2023/09/20 01:09:44;;;;;;;14.52;4.53;;;;;;;;;;4882071;29;20040;-87
2023/09/20 01:12:10;;;;;;;19.83;4.93;;;;;;;;;;4882009;29;20029;-87
2023/09/20 01:14:36;;;;;;;10.45;4.53;;;;;;;;;;4881989;29;20067;-86
2023/09/20 01:17:06;;;;;;;23.15;5.45;;;;;;;;;;4867348;29;20029;-87
2023/09/20 01:19:32;;;;;;;7.22;4.38;;;;;;;;;;4867663;29;20157;-87
2023/09/20 01:21:59;;;;;;;14.27;4.22;;;;;;;;;;4867324;29;20065;-87
2023/09/20 01:24:27;;;;;;;17.92;4.50;;;;;;;;;;4881293;29;20025;-86
2023/09/20 01:26:56;;;;;;;19.33;5.53;;;;;;;;;;4867735;29;20029;-86
2023/09/20 01:29:23;;;;;;;14.35;5.10;;;;;;;;;;4867471;29;20048;-87
2023/09/20 01:31:49;;;;;;;17.65;5.10;;;;;;;;;;4896686;29;20350;-87
2023/09/20 01:34:15;;;;;;;18.75;4.85;;;;;;;;;;4870068;29;20348;-87
2023/09/20 01:36:41;;;;;;;14.07;5.20;;;;;;;;;;4900245;29;20029;-88
2023/09/20 01:39:09;;;;;;;13.95;6.30;;;;;;;;;;4900237;29;20420;-88
2023/09/20 01:41:35;;;;;;;11.95;6.53;;;;;;;;;;4885383;29;20117;-89
2023/09/20 01:44:01;;;;;;;16.15;6.60;;;;;;;;;;4885322;29;20048;-88
2023/09/20 01:46:27;;;;;;;16.33;6.60;;;;;;;;;;4879007;29;20029;-87
2023/09/20 01:48:53;;;;;;;13.90;6.32;;;;;;;;;;4881637;29;20044;-87
2023/09/20 01:51:19;;;;;;;19.35;7.53;;;;;;;;;;4885378;29;20446;-88
2023/09/20 01:53:45;;;;;;;14.00;7.05;;;;;;;;;;4900047;29;20029;-88
2023/09/20 01:56:11;;;;;;;13.70;6.88;;;;;;;;;;4876410;29;20029;-89
2023/09/20 01:58:38;;;;;;;13.77;6.15;;;;;;;;;;4887394;29;20068;-87
2023/09/20 02:01:05;;;;;;;14.55;6.40;;;;;;;;;;4885486;29;20035;-88
2023/09/20 02:03:32;;;;;;;14.55;6.15;;;;;;;;;;4899943;29;20067;-88
2023/09/20 02:05:58;;;;;;;11.18;5.35;;;;;;;;;;4897777;29;20094;-88
2023/09/20 02:08:25;;;;;;;15.63;5.93;;;;;;;;;;4866505;29;20025;-89
2023/09/20 02:10:51;;;;;;;13.70;6.25;;;;;;;;;;4881072;29;20070;-88
2023/09/20 02:13:18;;;;;;;16.70;6.57;;;;;;;;;;4880921;29;20082;-88
2023/09/20 02:15:46;;;;;;;13.52;5.65;;;;;;;;;;4880978;29;20038;-88
2023/09/20 02:18:12;;;;;;;10.98;5.57;;;;;;;;;;4866559;29;20081;-88
2023/09/20 02:20:39;;;;;;;14.52;4.97;;;;;;;;;;4887513;29;20051;-88
2023/09/20 02:23:06;;;;;;;14.13;5.18;;;;;;;;;;4885155;29;20037;-89
2023/09/20 02:31:39;;;;;;;14.65;5.65;;;;;;;;;;4872981;29;20094;-87
2023/09/20 02:34:05;;;;;;;19.60;6.50;;;;;;;;;;4865945;29;20033;-86
2023/09/20 02:36:31;;;;;;;14.82;5.93;;;;;;;;;;4895627;29;20038;-86
2023/09/20 02:42:01;;;;;;;15.27;6.43;;;;;;;;;;4867671;29;20110;-87
2023/09/20 02:44:27;;;;;;;13.20;6.07;;;;;;;;;;4884223;29;20427;-87
2023/09/20 02:46:53;;;;;;;16.88;6.68;;;;;;;;;;4867556;29;20021;-87
2023/09/20 02:49:20;;;;;;;15.10;6.10;;;;;;;;;;4865970;29;20040;-87
2023/09/20 02:51:47;;;;;;;15.73;5.53;;;;;;;;;;4895131;29;20419;-87
2023/09/20 02:54:13;;;;;;;17.65;6.55;;;;;;;;;;4898957;29;20077;-86
2023/09/20 02:56:39;;;;;;;18.10;5.47;;;;;;;;;;4884317;29;20029;-88
2023/09/20 02:59:07;;;;;;;15.43;5.40;;;;;;;;;;4884201;29;20021;-87
2023/09/20 03:01:33;;;;;;;15.30;5.43;;;;;;;;;;4898624;29;20117;-88
2023/09/20 03:03:59;;;;;;;13.60;5.78;;;;;;;;;;4868078;29;20112;-88
2023/09/20 03:06:25;;;;;;;14.82;5.85;;;;;;;;;;4865483;29;20037;-87
2023/09/20 03:08:53;;;;;;;19.42;6.07;;;;;;;;;;4887532;29;20056;-90
2023/09/20 03:11:21;;;;;;;11.75;5.15;;;;;;;;;;4876359;29;20052;-89
2023/09/20 03:13:47;;;;;;;13.07;4.93;;;;;;;;;;4883920;29;20036;-89
2023/09/20 03:16:19;;;;;;;16.70;5.30;;;;;;;;;;4883391;29;20032;-89
2023/09/20 03:18:51;;;;;;;13.40;5.20;;;;;;;;;;4888673;29;20022;-89
2023/09/20 03:21:19;;;;;;;16.75;5.65;;;;;;;;;;4873995;29;20069;-88
2023/09/20 03:23:45;;;;;;;14.88;5.53;;;;;;;;;;4867330;29;20116;-86
2023/09/20 03:29:14;;;;;;;11.23;5.28;;;;;;;;;;4874606;29;20044;-87
2023/09/20 03:31:42;;;;;;;16.48;5.25;;;;;;;;;;4883553;29;20360;-87
2023/09/20 03:34:10;;;;;;;12.63;5.05;;;;;;;;;;4883767;29;20029;-87
2023/09/20 03:36:37;;;;;;;18.40;5.50;;;;;;;;;;4883116;29;20520;-86
2023/09/20 03:39:05;;;;;;;17.20;6.05;;;;;;;;;;4869611;29;20033;-89
2023/09/20 03:44:35;;;;;;;13.77;4.80;;;;;;;;;;4856299;29;20085;-89
2023/09/20 03:47:01;;;;;;;17.35;5.65;;;;;;;;;;4865941;29;20068;-89
2023/09/20 03:49:28;;;;;;;16.00;5.45;;;;;;;;;;4901747;29;20029;-90
2023/09/20 03:51:54;;;;;;;22.45;5.70;;;;;;;;;;4888281;29;20032;-92
2023/09/20 04:00:29;;;;;;;16.98;5.25;;;;;;;;;;4887163;29;20327;-89
2023/09/20 04:02:55;;;;;;;15.48;5.28;;;;;;;;;;4887171;29;20467;-90
2023/09/20 04:05:21;;;;;;;20.17;5.60;;;;;;;;;;4897614;29;20123;-90
2023/09/20 04:07:48;;;;;;;15.25;5.93;;;;;;;;;;4920732;29;20346;-91
2023/09/20 04:10:16;;;;;;;16.92;5.60;;;;;;;;;;4913445;29;20120;-91
2023/09/20 04:12:42;;;;;;;14.02;5.43;;;;;;;;;;4901869;29;20064;-89
2023/09/20 04:15:08;;;;;;;11.43;5.50;;;;;;;;;;4901762;29;20368;-91
2023/09/20 04:17:35;;;;;;;14.57;5.82;;;;;;;;;;4901869;29;20032;-91
2023/09/20 04:20:08;;;;;;;15.77;6.18;;;;;;;;;;4901554;29;20077;-91
2023/09/20 04:22:37;;;;;;;13.30;6.07;;;;;;;;;;4910408;29;20033;-90
2023/09/20 04:25:05;;;;;;;20.42;6.25;;;;;;;;;;4912027;29;20029;-91
2023/09/20 04:27:31;;;;;;;19.02;6.13;;;;;;;;;;4900282;29;20029;-91
2023/09/20 04:29:58;;;;;;;13.52;5.88;;;;;;;;;;4886907;29;20033;-91
2023/09/20 04:32:24;;;;;;;22.60;6.55;;;;;;;;;;4879617;29;20439;-90
2023/09/20 04:34:53;;;;;;;36.30;6.90;;;;;;;;;;4892698;29;20181;-85
2023/09/20 04:37:22;;;;;;;19.75;6.25;;;;;;;;;;4888547;29;20037;-85
2023/09/20 04:39:49;;;;;;;23.80;7.25;;;;;;;;;;4901491;29;20128;-86
2023/09/20 04:42:16;;;;;;;24.55;6.70;;;;;;;;;;4901245;29;20442;-87
2023/09/20 04:44:42;;;;;;;19.95;6.63;;;;;;;;;;4901182;29;20037;-87
2023/09/20 04:47:12;;;;;;;19.27;6.30;;;;;;;;;;4900988;29;20327;-87
2023/09/20 04:49:38;;;;;;;14.68;5.88;;;;;;;;;;4886798;29;20026;-87
2023/09/20 04:52:05;;;;;;;25.40;7.28;;;;;;;;;;4900943;29;20055;-87
2023/09/20 04:54:33;;;;;;;19.52;6.35;;;;;;;;;;4901077;29;20033;-87
2023/09/20 04:57:00;;;;;;;19.40;6.85;;;;;;;;;;4900921;29;20119;-87
2023/09/20 04:59:26;;;;;;;18.38;6.90;;;;;;;;;;4885893;29;20029;-87
2023/09/20 05:01:52;;;;;;;21.65;6.72;;;;;;;;;;4886196;29;20037;-87
2023/09/20 05:04:19;;;;;;;23.83;6.40;;;;;;;;;;4900900;29;20073;-86
2023/09/20 05:06:46;;;;;;;17.85;6.72;;;;;;;;;;4900454;29;20031;-87
2023/09/20 05:09:15;;;;;;;22.08;6.63;;;;;;;;;;4900673;29;20068;-86
2023/09/20 05:12:00;;;;;;;19.67;5.93;;;;;;;;;;4886319;29;20031;-86
2023/09/20 05:14:27;;;;;;;20.55;6.70;;;;;;;;;;4884491;29;20397;-87
2023/09/20 05:16:53;;;;;;;16.08;6.85;;;;;;;;;;4886022;29;20029;-88
2023/09/20 05:19:19;;;;;;;15.45;6.05;;;;;;;;;;4900543;29;20032;-88
2023/09/20 05:21:45;;;;;;;19.75;6.30;;;;;;;;;;4880959;29;20387;-88
2023/09/20 05:24:11;;;;;;;11.90;6.18;;;;;;;;;;4881819;29;20408;-88
2023/09/20 05:26:37;;;;;;;16.02;6.55;;;;;;;;;;4882207;29;20033;-88
2023/09/20 05:29:03;;;;;;;25.55;6.60;;;;;;;;;;4867631;29;20030;-88
2023/09/20 05:31:30;;;;;;;19.20;6.75;;;;;;;;;;4883722;29;20061;-88
2023/09/20 05:33:56;;;;;;;22.90;6.60;;;;;;;;;;4900488;29;20033;-89
2023/09/20 05:36:23;;;;;;;17.67;6.15;;;;;;;;;;4885862;29;20036;-93
2023/09/20 05:38:52;;;;;;;29.52;7.53;;;;;;;;;;4900417;29;20021;-93
2023/09/20 05:41:18;;;;;;;15.18;6.45;;;;;;;;;;4887599;29;20029;-93
2023/09/20 05:43:44;;;;;;;16.60;6.43;;;;;;;;;;4881645;29;20360;-93
2023/09/20 05:46:13;;;;;;;18.75;6.78;;;;;;;;;;4867510;29;20078;-93
2023/09/20 06:01:23;;;;;;;14.07;6.47;;;;;;;;;;5104844;27;1484010;-95
2023/09/20 06:03:49;;;;;;;11.85;5.25;;;;;;;;;;5117862;28;20057;-95
2023/09/20 06:09:25;;;;;;;10.75;5.13;;;;;;;;;;5135638;28;20053;-95
2023/09/20 06:11:52;;;;;;;10.27;5.18;;;;;;;;;;5116579;28;20035;-95
2023/09/20 06:14:18;;;;;;;11.90;4.53;;;;;;;;;;5135373;28;20412;-90
2023/09/20 06:16:44;;;;;;;7.63;4.22;;;;;;;;;;5135378;28;20024;-92
2023/09/20 06:19:10;;;;;;;10.30;4.05;;;;;;;;;;5113972;28;20038;-91
2023/09/20 06:21:38;;;;;;;11.70;4.65;;;;;;;;;;5113938;28;20351;-91
2023/09/20 06:24:04;;;;;;;10.98;4.03;;;;;;;;;;5117417;28;20028;-90
2023/09/20 06:26:30;;;;;;;8.55;4.50;;;;;;;;;;5117087;28;20160;-93
2023/09/20 06:28:56;;;;;;;13.55;4.93;;;;;;;;;;5117008;28;20023;-92
2023/09/20 06:31:22;;;;;;;11.95;4.13;;;;;;;;;;5116876;28;20028;-90
2023/09/20 06:33:49;;;;;;;12.35;3.92;;;;;;;;;;5133608;28;20031;-92
2023/09/20 06:36:20;;;;;;;14.20;4.75;;;;;;;;;;5114776;28;20069;-92
2023/09/20 06:38:52;;;;;;;10.73;3.97;;;;;;;;;;5115039;28;20070;-92
2023/09/20 06:41:20;;;;;;;9.40;4.10;;;;;;;;;;5096885;28;20035;-92
2023/09/20 06:43:46;;;;;;;7.18;4.10;;;;;;;;;;5120644;28;20024;-84
2023/09/20 06:46:12;;;;;;;10.50;3.97;;;;;;;;;;5115731;28;20036;-83
2023/09/20 07:34:59;;;;;;;4.80;2.00;;;;;;;;;;4934746;29;20041;-96
2023/09/20 08:09:49;;;;;;;4.65;1.80;;;;;;;;;;4924933;29;20059;-96
2023/09/20 08:12:16;;;;;;;8.02;2.33;;;;;;;;;;4929608;29;20025;-96
2023/09/20 09:33:37;;;;;;;4.07;1.55;;;;;;;;;;5711768;23;20121;-85
2023/09/20 09:39:09;;;;;;;1.70;0.98;;;;;;;;;;4948884;29;20094;-88
2023/09/20 09:44:58;;;;;;;8.02;1.35;;;;;;;;;;4878151;29;20112;-95
2023/09/20 09:47:44;;;;;;;2.03;1.25;;;;;;;;;;4848525;29;20532;-96
2023/09/20 09:50:28;;;;;;;3.28;1.42;;;;;;;;;;4937906;23;20086;-96
2023/09/20 09:58:33;;;;;;;4.22;1.35;;;;;;;;;;5444453;23;20079;-96
2023/09/20 10:01:22;;;;;;;3.78;1.25;;;;;;;;;;4950383;29;20440;-95
2023/09/20 10:25:42;;;;;;;4.63;1.13;;;;;;;;;;5782590;23;19951;-91
2023/09/20 10:28:26;;;;;;;3.13;1.30;;;;;;;;;;5128702;23;20064;-96
2023/09/20 10:31:01;;;;;;;3.45;1.20;;;;;;;;;;5084804;23;20062;-96
2023/09/20 10:47:31;;;;;;;2.00;1.20;;;;;;;;;;5154760;23;20066;-93
2023/09/20 10:50:11;;;;;;;;;;;;;;;;;;;;;
2023/09/20 10:52:56;;;;;;;1.75;1.08;;;;;;;;;;5113055;23;20070;-96
2023/09/20 10:55:28;;;;;;;2.90;1.10;;;;;;;;;;4968682;29;20075;-92
2023/09/20 10:57:56;;;;;;;3.05;1.30;;;;;;;;;;4965328;29;20062;-95
2023/09/20 11:00:30;;;;;;;4.03;1.25;;;;;;;;;;5052460;23;20031;-96
2023/09/20 11:02:59;;;;;;;2.75;1.40;;;;;;;;;;4936437;29;20102;-95
2023/09/20 11:05:53;;;;;;;1.88;1.08;;;;;;;;;;4956420;29;20024;-94
2023/09/20 11:08:38;;;;;;;3.13;1.50;;;;;;;;;;4944078;29;20031;-86
2023/09/20 11:11:06;;;;;;;2.83;1.08;;;;;;;;;;4925118;29;20274;-80
2023/09/20 11:13:33;;;;;;;2.42;1.00;;;;;;;;;;4941973;29;20020;-80
2023/09/20 11:16:02;;;;;;;4.75;1.25;;;;;;;;;;4942170;29;20054;-80
2023/09/20 11:18:28;;;;;;;3.03;1.35;;;;;;;;;;4941583;29;20024;-80
2023/09/20 11:20:55;;;;;;;5.88;1.48;;;;;;;;;;4924924;29;20024;-81
2023/09/20 11:23:21;;;;;;;3.95;1.25;;;;;;;;;;4941485;29;20038;-80
2023/09/20 11:25:50;;;;;;;4.57;1.73;;;;;;;;;;4938698;29;20032;-81
2023/09/20 11:28:16;;;;;;;2.78;1.50;;;;;;;;;;4941447;29;20115;-81
2023/09/20 11:30:43;;;;;;;4.72;1.40;;;;;;;;;;4940872;29;20020;-80
2023/09/20 11:33:25;;;;;;;3.65;1.48;;;;;;;;;;4924572;29;20366;-80
2023/09/20 11:35:51;;;;;;;4.35;1.10;;;;;;;;;;4924441;29;20422;-81
2023/09/20 11:38:17;;;;;;;2.13;1.13;;;;;;;;;;4941495;29;20028;-82
2023/09/20 11:40:43;;;;;;;2.65;1.45;;;;;;;;;;4923612;29;20044;-82
2023/09/20 11:43:09;;;;;;;3.65;1.08;;;;;;;;;;4941363;29;20452;-80
2023/09/20 11:45:36;;;;;;;6.82;1.30;;;;;;;;;;4923530;29;20043;-82
2023/09/20 11:48:15;;;;;;;3.40;1.10;;;;;;;;;;4941409;29;20177;-82
2023/09/20 11:50:47;;;;;;;3.83;1.40;;;;;;;;;;4936677;29;20434;-81
2023/09/20 11:53:14;;;;;;;1.88;1.00;;;;;;;;;;4911998;29;20376;-83
2023/09/20 11:55:44;;;;;;;2.85;1.20;;;;;;;;;;4916177;29;20494;-81
2023/09/20 11:58:10;;;;;;;1.95;1.10;;;;;;;;;;4918555;29;20027;-81
2023/09/20 12:00:36;;;;;;;2.83;1.15;;;;;;;;;;4941307;29;20039;-80
2023/09/20 12:03:03;;;;;;;1.92;1.05;;;;;;;;;;4918495;29;20430;-81
2023/09/20 12:05:29;;;;;;;2.72;1.20;;;;;;;;;;4939441;29;20040;-81
2023/09/20 12:07:56;;;;;;;3.50;1.27;;;;;;;;;;4924277;29;20114;-81
2023/09/20 12:10:22;;;;;;;1.98;1.10;;;;;;;;;;4941317;29;20064;-81
2023/09/20 12:12:51;;;;;;;2.63;1.20;;;;;;;;;;4941125;29;20024;-81
2023/09/20 12:15:18;;;;;;;4.15;1.10;;;;;;;;;;4940233;29;20024;-80
2023/09/20 12:17:45;;;;;;;2.85;1.05;;;;;;;;;;4924326;29;20322;-80
2023/09/20 12:20:12;;;;;;;1.02;0.82;;;;;;;;;;4940749;29;20075;-80
2023/09/20 12:22:39;;;;;;;1.60;0.93;;;;;;;;;;4923965;29;20334;-80
2023/09/20 12:25:08;;;;;;;1.48;1.08;;;;;;;;;;4940744;29;20024;-80
2023/09/20 12:27:35;;;;;;;2.10;0.90;;;;;;;;;;4924126;29;20024;-79
2023/09/20 12:30:01;;;;;;;2.30;1.00;;;;;;;;;;4923537;29;20070;-80
2023/09/20 12:32:27;;;;;;;1.45;0.93;;;;;;;;;;4940760;29;20071;-79
2023/09/20 12:34:55;;;;;;;2.30;1.15;;;;;;;;;;4923533;29;20047;-79
2023/09/20 12:37:21;;;;;;;3.30;1.00;;;;;;;;;;4914505;29;20333;-80
2023/09/20 12:39:47;;;;;;;3.17;1.17;;;;;;;;;;4926787;29;20036;-85
2023/09/20 12:42:13;;;;;;;4.80;1.10;;;;;;;;;;4915731;29;20068;-81
2023/09/20 12:44:39;;;;;;;2.20;1.13;;;;;;;;;;4930507;29;20295;-80
2023/09/20 12:47:07;;;;;;;3.50;1.20;;;;;;;;;;4940246;29;20031;-80
2023/09/20 12:49:36;;;;;;;3.95;1.08;;;;;;;;;;4939938;29;20326;-80
2023/09/20 12:52:03;;;;;;;3.45;1.02;;;;;;;;;;4923158;29;20035;-79
2023/09/20 12:54:30;;;;;;;2.33;1.60;;;;;;;;;;4939664;29;20028;-80
2023/09/20 12:56:56;;;;;;;4.70;1.17;;;;;;;;;;4940108;29;20031;-80
2023/09/20 12:59:26;;;;;;;27.02;15.10;;;;;;;;;;4939161;29;20123;-80
2023/09/20 13:01:59;;;;;;;32.35;19.83;;;;;;;;;;4939680;29;20383;-80
2023/09/20 13:04:25;;;;;;;22.42;15.05;;;;;;;;;;4923187;29;20138;-80
2023/09/20 13:06:51;;;;;;;11.43;6.90;;;;;;;;;;4939850;29;20032;-80
2023/09/20 13:09:18;;;;;;;61.35;35.92;;;;;;;;;;4940293;29;20119;-80
2023/09/20 13:11:46;;;;;;;5.13;2.97;;;;;;;;;;4940156;29;20030;-78
2023/09/20 13:14:12;;;;;;;64.88;38.15;;;;;;;;;;4940512;29;20437;-84
2023/09/20 13:16:41;;;;;;;48.20;31.08;;;;;;;;;;4940441;29;20054;-84
2023/09/20 13:19:09;;;;;;;71.75;39.75;;;;;;;;;;4922296;29;20051;-81
2023/09/20 13:21:53;;;;;;;116.97;69.65;;;;;;;;;;4937534;29;20042;-80
2023/09/20 13:24:20;;;;;;;60.42;37.28;;;;;;;;;;4920952;29;20046;-81
2023/09/20 13:26:46;;;;;;;169.52;101.47;;;;;;;;;;4921049;29;20051;-81
2023/09/20 13:29:13;;;;;;;166.40;92.50;;;;;;;;;;4904182;29;20052;-81
2023/09/20 13:31:40;;;;;;;96.40;54.88;;;;;;;;;;4920851;29;20088;-81
2023/09/20 13:34:14;;;;;;;22.23;12.35;;;;;;;;;;4925445;29;20035;-81
2023/09/20 13:36:40;;;;;;;31.58;15.27;;;;;;;;;;4936825;29;20062;-82
2023/09/20 13:39:06;;;;;;;32.08;18.38;;;;;;;;;;4939334;29;20500;-81
2023/09/20 13:41:32;;;;;;;27.27;16.25;;;;;;;;;;4922880;29;20330;-81
2023/09/20 13:43:58;;;;;;;26.42;16.27;;;;;;;;;;4919256;29;20044;-81
2023/09/20 13:46:25;;;;;;;16.38;9.63;;;;;;;;;;4919379;29;20044;-81
2023/09/20 13:48:51;;;;;;;128.38;72.68;;;;;;;;;;4931007;29;20024;-80
2023/09/20 13:51:17;;;;;;;9.35;5.95;;;;;;;;;;4911487;29;20021;-82
2023/09/20 13:53:45;;;;;;;11.77;6.50;;;;;;;;;;4920598;29;20371;-82
2023/09/20 13:56:11;;;;;;;22.25;12.50;;;;;;;;;;4923181;29;20023;-82
2023/09/20 13:58:40;;;;;;;74.68;42.40;;;;;;;;;;4922371;29;20406;-83
2023/09/20 14:01:06;;;;;;;27.90;17.92;;;;;;;;;;4920405;29;20048;-82
2023/09/20 14:03:37;;;;;;;52.58;29.88;;;;;;;;;;4920377;29;20036;-83
2023/09/20 14:06:03;;;;;;;6.82;3.92;;;;;;;;;;4922554;29;20035;-83
2023/09/20 14:08:29;;;;;;;9.90;5.78;;;;;;;;;;4912630;29;20261;-83
2023/09/20 14:10:56;;;;;;;11.85;4.30;;;;;;;;;;4940117;29;20433;-83
2023/09/20 14:13:24;;;;;;;7.80;4.85;;;;;;;;;;4935149;29;20020;-83
2023/09/20 14:15:50;;;;;;;3.20;2.30;;;;;;;;;;4931208;29;20387;-82
2023/09/20 14:18:16;;;;;;;6.72;3.92;;;;;;;;;;4907479;29;20085;-83
2023/09/20 14:20:43;;;;;;;8.90;4.90;;;;;;;;;;4924413;29;20107;-83
2023/09/20 14:23:09;;;;;;;6.47;3.28;;;;;;;;;;4924309;29;20036;-83
2023/09/20 14:25:37;;;;;;;11.88;4.13;;;;;;;;;;4907325;29;20036;-83
2023/09/20 14:28:03;;;;;;;9.55;3.65;;;;;;;;;;4928737;29;20422;-83
2023/09/20 14:30:33;;;;;;;4.75;2.58;;;;;;;;;;4925858;29;20044;-83
2023/09/20 14:32:59;;;;;;;4.32;2.28;;;;;;;;;;4933562;29;20043;-83
2023/09/20 14:35:25;;;;;;;3.15;1.15;;;;;;;;;;4907356;29;20031;-83
2023/09/20 14:37:53;;;;;;;5.35;1.95;;;;;;;;;;4924078;29;20016;-83
2023/09/20 14:40:21;;;;;;;3.55;1.10;;;;;;;;;;4910246;29;20042;-83
2023/09/20 14:42:54;;;;;;;6.05;1.67;;;;;;;;;;4943078;29;20031;-82
2023/09/20 14:45:22;;;;;;;6.20;1.65;;;;;;;;;;4925226;29;20103;-83
2023/09/20 14:47:50;;;;;;;8.50;1.58;;;;;;;;;;4942807;29;20032;-83
2023/09/20 14:50:16;;;;;;;24.45;4.03;;;;;;;;;;4942673;29;20079;-83
2023/09/20 14:52:42;;;;;;;18.13;2.63;;;;;;;;;;4942795;29;20310;-83
2023/09/20 14:55:13;;;;;;;1.80;1.30;;;;;;;;;;4942497;29;20102;-83
2023/09/20 14:57:41;;;;;;;3.75;1.48;;;;;;;;;;4925035;29;20489;-83
2023/09/20 15:00:08;;;;;;;2.97;1.30;;;;;;;;;;4924338;29;20032;-83
2023/09/20 15:02:34;;;;;;;4.40;1.77;;;;;;;;;;4924952;29;20090;-83
2023/09/20 15:05:00;;;;;;;7.03;2.33;;;;;;;;;;4939079;29;20032;-83
2023/09/20 15:07:27;;;;;;;11.40;1.52;;;;;;;;;;4942388;29;20091;-83
2023/09/20 15:09:54;;;;;;;4.07;1.25;;;;;;;;;;4942546;29;20051;-83
2023/09/20 15:12:20;;;;;;;6.40;3.22;;;;;;;;;;4942659;29;20035;-83
2023/09/20 15:14:47;;;;;;;4.15;1.98;;;;;;;;;;4924746;29;20126;-83
2023/09/20 15:17:14;;;;;;;8.45;2.90;;;;;;;;;;4924881;29;20032;-83
2023/09/20 15:19:40;;;;;;;3.78;1.40;;;;;;;;;;4922596;29;20071;-83
2023/09/20 15:22:06;;;;;;;2.67;1.20;;;;;;;;;;4922855;29;20371;-82
2023/09/20 15:24:33;;;;;;;3.28;1.80;;;;;;;;;;4923380;29;20522;-82
2023/09/20 15:26:59;;;;;;;5.50;2.83;;;;;;;;;;4923227;29;20060;-83
2023/09/20 15:29:25;;;;;;;3.40;1.90;;;;;;;;;;4922779;29;20032;-82
2023/09/20 15:31:53;;;;;;;5.22;2.72;;;;;;;;;;4923098;29;20065;-82
2023/09/20 15:34:20;;;;;;;10.90;2.65;;;;;;;;;;4923633;29;20028;-82
2023/09/20 15:36:46;;;;;;;3.83;1.00;;;;;;;;;;4922914;29;20024;-82
2023/09/20 15:39:12;;;;;;;2.88;1.20;;;;;;;;;;4923009;29;20036;-82
2023/09/20 15:41:39;;;;;;;3.65;1.10;;;;;;;;;;4928081;29;20024;-82
2023/09/20 15:44:05;;;;;;;4.20;1.38;;;;;;;;;;4928665;29;20043;-83
2023/09/20 15:46:31;;;;;;;5.32;2.75;;;;;;;;;;4922385;29;20052;-82
2023/09/20 15:49:00;;;;;;;5.50;1.60;;;;;;;;;;4934423;29;20036;-82
2023/09/20 15:51:26;;;;;;;3.30;1.20;;;;;;;;;;4924283;29;20042;-82
2023/09/20 15:53:53;;;;;;;4.13;1.77;;;;;;;;;;4924409;29;20030;-82
2023/09/20 15:56:20;;;;;;;9.50;2.05;;;;;;;;;;4932263;29;20024;-80
2023/09/20 15:58:46;;;;;;;5.93;2.55;;;;;;;;;;4924845;29;20403;-81
2023/09/20 16:01:14;;;;;;;7.28;1.38;;;;;;;;;;4942849;29;20075;-96
2023/09/20 16:03:41;;;;;;;5.00;1.83;;;;;;;;;;4937406;29;20044;-96
2023/09/20 16:06:10;;;;;;;9.73;2.35;;;;;;;;;;4928623;29;20036;-94
2023/09/20 16:08:37;;;;;;;26.40;3.00;;;;;;;;;;4935811;29;20028;-94
2023/09/20 16:11:03;;;;;;;15.13;2.17;;;;;;;;;;4891624;29;20403;-82
2023/09/20 16:13:29;;;;;;;16.30;2.20;;;;;;;;;;4905698;29;20028;-84
2023/09/20 16:15:55;;;;;;;18.50;5.07;;;;;;;;;;4922440;29;20107;-84
2023/09/20 16:18:21;;;;;;;13.88;2.63;;;;;;;;;;4905421;29;20115;-83
2023/09/20 16:20:47;;;;;;;18.67;4.90;;;;;;;;;;4907491;29;20036;-84
2023/09/20 16:23:14;;;;;;;19.70;6.80;;;;;;;;;;4921724;29;20036;-82
2023/09/20 16:25:40;;;;;;;25.67;9.07;;;;;;;;;;4931634;29;20035;-82
2023/09/20 16:28:07;;;;;;;19.20;7.28;;;;;;;;;;4939216;29;20070;-81
2023/09/20 16:30:33;;;;;;;18.00;9.93;;;;;;;;;;4935598;29;20039;-81
2023/09/20 16:32:59;;;;;;;21.70;9.52;;;;;;;;;;4940269;29;20070;-84
2023/09/20 16:35:26;;;;;;;22.02;9.25;;;;;;;;;;4923614;29;20027;-83
2023/09/20 16:37:52;;;;;;;34.47;14.50;;;;;;;;;;4923582;29;20023;-74
2023/09/20 16:40:19;;;;;;;34.92;15.00;;;;;;;;;;4940232;29;20418;-74
2023/09/20 16:42:45;;;;;;;22.17;9.70;;;;;;;;;;4940159;29;20040;-74
2023/09/20 16:45:12;;;;;;;23.05;9.68;;;;;;;;;;4940370;29;20147;-74
2023/09/20 16:47:42;;;;;;;44.58;18.60;;;;;;;;;;4940520;29;20027;-74
2023/09/20 16:50:08;;;;;;;54.95;23.50;;;;;;;;;;4940569;29;20035;-74
2023/09/20 16:52:35;;;;;;;87.25;37.47;;;;;;;;;;4940212;29;20099;-74
2023/09/20 16:55:01;;;;;;;128.70;55.42;;;;;;;;;;4940283;29;20034;-74
2023/09/20 16:57:27;;;;;;;132.18;49.70;;;;;;;;;;4940286;29;20047;-74
2023/09/20 16:59:53;;;;;;;124.15;49.33;;;;;;;;;;4940228;29;20027;-74
2023/09/20 17:02:23;;;;;;;120.25;50.38;;;;;;;;;;4940146;29;20067;-74
2023/09/20 17:04:50;;;;;;;114.25;46.58;;;;;;;;;;4940368;29;20032;-74
2023/09/20 17:07:16;;;;;;;113.75;44.00;;;;;;;;;;4940056;29;20422;-74
2023/09/20 17:09:42;;;;;;;103.63;41.33;;;;;;;;;;4939817;29;20032;-74
2023/09/20 17:12:08;;;;;;;83.45;29.08;;;;;;;;;;4922815;29;20079;-75
2023/09/20 17:14:36;;;;;;;58.47;24.80;;;;;;;;;;4940001;29;20075;-73
2023/09/20 17:17:05;;;;;;;57.25;22.38;;;;;;;;;;4939939;29;20019;-74
2023/09/20 17:19:32;;;;;;;59.17;21.30;;;;;;;;;;4940085;29;20405;-74
2023/09/20 17:22:02;;;;;;;49.67;19.05;;;;;;;;;;4940142;29;20039;-75
2023/09/20 17:24:28;;;;;;;48.40;19.55;;;;;;;;;;4939944;29;20032;-74
2023/09/20 17:26:54;;;;;;;42.30;18.20;;;;;;;;;;4939855;29;20036;-74
2023/09/20 17:29:20;;;;;;;39.15;18.08;;;;;;;;;;4939918;29;20413;-74
2023/09/20 17:31:46;;;;;;;53.78;22.33;;;;;;;;;;4940089;29;20024;-74
2023/09/20 17:34:14;;;;;;;54.30;22.10;;;;;;;;;;4939798;29;20087;-74
2023/09/20 17:36:40;;;;;;;34.10;16.50;;;;;;;;;;4939850;29;20028;-74
2023/09/20 17:39:06;;;;;;;29.77;15.48;;;;;;;;;;4939756;29;20023;-75
2023/09/20 17:41:32;;;;;;;29.58;11.57;;;;;;;;;;4922548;29;20032;-74
2023/09/20 17:43:59;;;;;;;25.98;12.50;;;;;;;;;;4939787;29;20052;-74
2023/09/20 17:46:25;;;;;;;25.55;12.25;;;;;;;;;;4939450;29;20418;-74
2023/09/20 17:48:54;;;;;;;19.50;10.15;;;;;;;;;;4939627;29;20028;-74
2023/09/20 17:51:20;;;;;;;27.42;11.05;;;;;;;;;;4940253;29;20054;-92
2023/09/20 17:53:46;;;;;;;14.35;5.90;;;;;;;;;;4923545;29;20031;-90
2023/09/20 17:56:18;;;;;;;12.10;4.13;;;;;;;;;;4940141;29;20474;-91
2023/09/20 17:58:44;;;;;;;8.80;3.58;;;;;;;;;;4923756;29;20442;-93
2023/09/20 18:01:12;;;;;;;13.20;2.90;;;;;;;;;;4940230;29;20119;-91
2023/09/20 18:03:38;;;;;;;19.90;4.00;;;;;;;;;;4923026;29;20043;-92
2023/09/20 18:06:08;;;;;;;18.02;2.97;;;;;;;;;;4923673;29;20027;-92
2023/09/20 18:08:34;;;;;;;6.10;2.10;;;;;;;;;;4923487;29;20032;-93
2023/09/20 18:11:00;;;;;;;7.00;2.30;;;;;;;;;;4922945;29;20036;-92
2023/09/20 18:13:28;;;;;;;8.88;2.30;;;;;;;;;;4923444;29;20031;-92
2023/09/20 18:15:54;;;;;;;13.70;3.00;;;;;;;;;;4940344;29;20235;-93
2023/09/20 18:18:20;;;;;;;16.88;2.72;;;;;;;;;;4940144;29;20036;-92
2023/09/20 18:20:47;;;;;;;12.63;2.58;;;;;;;;;;4939970;29;20059;-93
2023/09/20 18:23:13;;;;;;;6.75;1.92;;;;;;;;;;4939948;29;20028;-91
2023/09/20 18:25:41;;;;;;;10.52;2.55;;;;;;;;;;4939828;29;20110;-92
2023/09/20 18:28:08;;;;;;;6.95;2.30;;;;;;;;;;4939997;29;20063;-91
2023/09/20 18:30:35;;;;;;;7.05;2.40;;;;;;;;;;4940073;29;20036;-92
2023/09/20 18:33:02;;;;;;;10.55;3.33;;;;;;;;;;4923149;29;20139;-93
2023/09/20 18:35:29;;;;;;;9.05;4.00;;;;;;;;;;4923159;29;20110;-91
2023/09/20 18:37:56;;;;;;;11.43;4.90;;;;;;;;;;4940380;29;20099;-89
2023/09/20 18:40:22;;;;;;;13.52;4.70;;;;;;;;;;4923284;29;20039;-82
2023/09/20 18:42:48;;;;;;;9.55;3.78;;;;;;;;;;4922468;29;20028;-83